Terminal Aerodrome Forecast
Issued by NWS

Home | Current Version | Previous Version | Text Only | Print | Product List | Glossary On
Versions: 1 2 3 4 5 6 7 8 9 10 11 12 13 14 15 16 17 18 19 20
000
FTUS45 KABQ 261819 CCA
TAFROW
TAF COR
KROW 261819Z 2618/2718 16010KT P6SM SCT060
     FM270500 17006KT P6SM VCSH BKN100
     FM271100 14006KT P6SM BKN015
     FM271600 VRB06KT P6SM SCT020=

USA.gov is the U.S. government's official web portal to all federal, state and local government web resources and services.